sensor_id;sensor_type;location;lat;lon;timestamp;P1;durP1;ratioP1;P2;durP2;ratioP2
3427;SDS011;1727;42.624;23.406;2022-08-19T09:35:23;6.00;;;5.40;;
3427;SDS011;1727;42.624;23.406;2022-08-19T09:37:54;7.23;;;4.57;;
3427;SDS011;1727;42.624;23.406;2022-08-19T09:40:22;7.80;;;4.43;;
3427;SDS011;1727;42.624;23.406;2022-08-19T09:42:49;5.53;;;5.03;;
3427;SDS011;1727;42.624;23.406;2022-08-19T09:45:18;5.60;;;5.10;;
3427;SDS011;1727;42.624;23.406;2022-08-19T09:47:47;4.90;;;4.40;;
3427;SDS011;1727;42.624;23.406;2022-08-19T09:50:16;6.50;;;5.70;;
3427;SDS011;1727;42.624;23.406;2022-08-19T09:52:45;6.50;;;4.80;;
3427;SDS011;1727;42.624;23.406;2022-08-19T09:55:12;5.03;;;4.63;;
3427;SDS011;1727;42.624;23.406;2022-08-19T09:57:41;11.10;;;5.00;;
3427;SDS011;1727;42.624;23.406;2022-08-19T10:00:08;11.33;;;4.90;;
3427;SDS011;1727;42.624;23.406;2022-08-19T10:02:36;6.37;;;5.77;;
3427;SDS011;1727;42.624;23.406;2022-08-19T10:05:03;6.40;;;5.30;;
3427;SDS011;1727;42.624;23.406;2022-08-19T10:07:49;5.73;;;5.13;;
3427;SDS011;1727;42.624;23.406;2022-08-19T10:10:16;6.47;;;5.73;;
3427;SDS011;1727;42.624;23.406;2022-08-19T10:12:43;5.53;;;4.97;;
3427;SDS011;1727;42.624;23.406;2022-08-19T10:15:12;5.87;;;5.43;;
3427;SDS011;1727;42.624;23.406;2022-08-19T10:18:19;7.53;;;5.87;;
3427;SDS011;1727;42.624;23.406;2022-08-19T10:21:03;5.40;;;5.00;;
3427;SDS011;1727;42.624;23.406;2022-08-19T10:23:35;8.93;;;5.30;;
3427;SDS011;1727;42.624;23.406;2022-08-19T10:26:03;5.23;;;4.83;;
3427;SDS011;1727;42.624;23.406;2022-08-19T10:28:31;6.67;;;5.70;;
3427;SDS011;1727;42.624;23.406;2022-08-19T10:31:03;9.50;;;6.83;;
3427;SDS011;1727;42.624;23.406;2022-08-19T10:33:31;8.70;;;5.63;;
3427;SDS011;1727;42.624;23.406;2022-08-19T10:35:59;6.07;;;5.57;;
3427;SDS011;1727;42.624;23.406;2022-08-19T10:38:26;8.93;;;6.00;;
3427;SDS011;1727;42.624;23.406;2022-08-19T10:40:55;12.43;;;6.03;;
3427;SDS011;1727;42.624;23.406;2022-08-19T10:43:22;6.67;;;6.17;;
3427;SDS011;1727;42.624;23.406;2022-08-19T10:45:52;7.80;;;5.93;;
3427;SDS011;1727;42.624;23.406;2022-08-19T10:48:21;6.50;;;5.90;;
3427;SDS011;1727;42.624;23.406;2022-08-19T10:50:48;6.60;;;6.00;;
3427;SDS011;1727;42.624;23.406;2022-08-19T10:53:32;6.20;;;5.70;;
3427;SDS011;1727;42.624;23.406;2022-08-19T10:56:00;7.30;;;5.30;;
3427;SDS011;1727;42.624;23.406;2022-08-19T10:58:44;10.03;;;6.20;;
3427;SDS011;1727;42.624;23.406;2022-08-19T11:01:12;8.83;;;5.70;;
3427;SDS011;1727;42.624;23.406;2022-08-19T11:06:19;5.47;;;4.97;;
3427;SDS011;1727;42.624;23.406;2022-08-19T11:08:46;6.23;;;5.60;;
3427;SDS011;1727;42.624;23.406;2022-08-19T11:11:14;5.80;;;5.40;;
3427;SDS011;1727;42.624;23.406;2022-08-19T11:13:42;10.30;;;5.30;;
3427;SDS011;1727;42.624;23.406;2022-08-19T11:16:13;9.10;;;6.10;;
3427;SDS011;1727;42.624;23.406;2022-08-19T11:18:42;20.50;;;6.47;;
3427;SDS011;1727;42.624;23.406;2022-08-19T11:21:11;6.27;;;5.77;;
3427;SDS011;1727;42.624;23.406;2022-08-19T11:23:39;10.30;;;6.13;;
3427;SDS011;1727;42.624;23.406;2022-08-19T11:26:07;11.33;;;6.33;;
3427;SDS011;1727;42.624;23.406;2022-08-19T11:28:35;6.53;;;5.93;;
3427;SDS011;1727;42.624;23.406;2022-08-19T11:31:02;6.90;;;6.20;;
3427;SDS011;1727;42.624;23.406;2022-08-19T11:33:29;6.33;;;5.73;;
3427;SDS011;1727;42.624;23.406;2022-08-19T11:35:56;9.30;;;6.13;;
3427;SDS011;1727;42.624;23.406;2022-08-19T11:38:25;6.80;;;6.20;;
3427;SDS011;1727;42.624;23.406;2022-08-19T11:40:55;7.80;;;6.17;;
3427;SDS011;1727;42.624;23.406;2022-08-19T11:43:22;5.97;;;5.30;;
3427;SDS011;1727;42.624;23.406;2022-08-19T11:45:53;6.47;;;5.87;;
3427;SDS011;1727;42.624;23.406;2022-08-19T11:48:20;6.90;;;5.90;;
3427;SDS011;1727;42.624;23.406;2022-08-19T11:50:48;6.80;;;6.17;;
3427;SDS011;1727;42.624;23.406;2022-08-19T11:53:15;7.07;;;6.43;;
3427;SDS011;1727;42.624;23.406;2022-08-19T11:55:43;7.83;;;6.20;;
3427;SDS011;1727;42.624;23.406;2022-08-19T11:58:11;7.23;;;6.53;;
3427;SDS011;1727;42.624;23.406;2022-08-19T12:00:39;7.43;;;5.90;;
3427;SDS011;1727;42.624;23.406;2022-08-19T12:03:07;9.13;;;5.97;;
3427;SDS011;1727;42.624;23.406;2022-08-19T12:05:36;8.10;;;6.23;;
3427;SDS011;1727;42.624;23.406;2022-08-19T12:08:03;7.10;;;6.40;;
3427;SDS011;1727;42.624;23.406;2022-08-19T12:10:31;6.90;;;6.20;;
3427;SDS011;1727;42.624;23.406;2022-08-19T12:12:58;9.07;;;6.60;;
3427;SDS011;1727;42.624;23.406;2022-08-19T12:15:26;7.73;;;6.20;;
3427;SDS011;1727;42.624;23.406;2022-08-19T12:17:54;7.80;;;6.13;;
3427;SDS011;1727;42.624;23.406;2022-08-19T12:23:49;9.17;;;6.50;;
3427;SDS011;1727;42.624;23.406;2022-08-19T12:31:27;7.73;;;6.10;;
3427;SDS011;1727;42.624;23.406;2022-08-19T12:33:54;6.43;;;5.93;;
3427;SDS011;1727;42.624;23.406;2022-08-19T12:36:21;7.53;;;6.40;;
3427;SDS011;1727;42.624;23.406;2022-08-19T12:38:51;7.07;;;6.33;;
3427;SDS011;1727;42.624;23.406;2022-08-19T12:41:18;9.20;;;6.73;;
3427;SDS011;1727;42.624;23.406;2022-08-19T12:43:47;6.90;;;6.23;;
3427;SDS011;1727;42.624;23.406;2022-08-19T12:46:14;6.33;;;5.70;;
3427;SDS011;1727;42.624;23.406;2022-08-19T12:48:41;9.60;;;6.30;;
3427;SDS011;1727;42.624;23.406;2022-08-19T12:51:10;7.57;;;6.60;;
3427;SDS011;1727;42.624;23.406;2022-08-19T12:53:38;7.50;;;6.80;;
3427;SDS011;1727;42.624;23.406;2022-08-19T12:56:07;7.13;;;6.57;;
3427;SDS011;1727;42.624;23.406;2022-08-19T12:58:36;11.03;;;6.90;;
3427;SDS011;1727;42.624;23.406;2022-08-19T13:01:07;7.73;;;7.07;;
3427;SDS011;1727;42.624;23.406;2022-08-19T13:03:35;7.10;;;6.50;;
3427;SDS011;1727;42.624;23.406;2022-08-19T13:06:02;8.60;;;7.07;;
3427;SDS011;1727;42.624;23.406;2022-08-19T13:08:29;6.97;;;6.37;;
3427;SDS011;1727;42.624;23.406;2022-08-19T13:10:57;7.63;;;5.77;;
3427;SDS011;1727;42.624;23.406;2022-08-19T13:13:26;7.43;;;6.83;;
3427;SDS011;1727;42.624;23.406;2022-08-19T13:15:52;7.60;;;6.20;;
3427;SDS011;1727;42.624;23.406;2022-08-19T13:18:28;7.17;;;6.47;;
3427;SDS011;1727;42.624;23.406;2022-08-19T13:20:54;15.30;;;6.67;;
3427;SDS011;1727;42.624;23.406;2022-08-19T13:23:21;7.20;;;6.50;;
3427;SDS011;1727;42.624;23.406;2022-08-19T13:25:55;8.53;;;7.20;;
3427;SDS011;1727;42.624;23.406;2022-08-19T13:28:22;8.17;;;7.37;;
3427;SDS011;1727;42.624;23.406;2022-08-19T13:30:51;8.00;;;6.43;;
3427;SDS011;1727;42.624;23.406;2022-08-19T13:33:35;8.50;;;6.83;;
3427;SDS011;1727;42.624;23.406;2022-08-19T13:36:02;6.50;;;5.90;;
3427;SDS011;1727;42.624;23.406;2022-08-19T13:38:32;8.03;;;7.23;;
3427;SDS011;1727;42.624;23.406;2022-08-19T13:41:03;7.10;;;6.50;;
3427;SDS011;1727;42.624;23.406;2022-08-19T13:43:32;10.20;;;6.60;;
3427;SDS011;1727;42.624;23.406;2022-08-19T13:46:07;7.40;;;6.80;;
3427;SDS011;1727;42.624;23.406;2022-08-19T13:48:39;9.83;;;7.03;;
3427;SDS011;1727;42.624;23.406;2022-08-19T13:51:06;8.20;;;7.37;;
3427;SDS011;1727;42.624;23.406;2022-08-19T13:53:34;7.73;;;7.00;;
3427;SDS011;1727;42.624;23.406;2022-08-19T13:56:04;10.90;;;7.63;;
3427;SDS011;1727;42.624;23.406;2022-08-19T13:58:32;9.10;;;6.50;;
3427;SDS011;1727;42.624;23.406;2022-08-19T14:00:58;7.93;;;7.13;;
3427;SDS011;1727;42.624;23.406;2022-08-19T14:03:27;10.23;;;7.67;;
3427;SDS011;1727;42.624;23.406;2022-08-19T14:05:54;8.27;;;7.00;;
3427;SDS011;1727;42.624;23.406;2022-08-19T14:08:21;7.87;;;7.27;;
3427;SDS011;1727;42.624;23.406;2022-08-19T14:10:48;11.03;;;7.63;;
3427;SDS011;1727;42.624;23.406;2022-08-19T14:13:16;11.07;;;6.50;;
3427;SDS011;1727;42.624;23.406;2022-08-19T14:15:45;10.50;;;7.13;;
3427;SDS011;1727;42.624;23.406;2022-08-19T14:18:13;13.00;;;8.63;;
3427;SDS011;1727;42.624;23.406;2022-08-19T14:20:41;9.73;;;8.73;;
3427;SDS011;1727;42.624;23.406;2022-08-19T14:23:08;15.17;;;11.90;;
3427;SDS011;1727;42.624;23.406;2022-08-19T14:25:35;9.13;;;8.03;;
3427;SDS011;1727;42.624;23.406;2022-08-19T14:28:02;8.87;;;7.10;;
3427;SDS011;1727;42.624;23.406;2022-08-19T14:30:30;10.13;;;9.23;;
3427;SDS011;1727;42.624;23.406;2022-08-19T14:32:59;17.40;;;8.43;;
3427;SDS011;1727;42.624;23.406;2022-08-19T14:35:29;9.33;;;8.43;;
3427;SDS011;1727;42.624;23.406;2022-08-19T14:37:58;9.53;;;7.00;;
3427;SDS011;1727;42.624;23.406;2022-08-19T14:40:26;9.20;;;8.30;;
3427;SDS011;1727;42.624;23.406;2022-08-19T14:42:56;12.03;;;6.93;;
3427;SDS011;1727;42.624;23.406;2022-08-19T14:45:29;7.73;;;7.03;;
3427;SDS011;1727;42.624;23.406;2022-08-19T14:47:56;12.43;;;8.30;;
3427;SDS011;1727;42.624;23.406;2022-08-19T14:50:24;7.30;;;6.70;;
3427;SDS011;1727;42.624;23.406;2022-08-19T14:52:57;7.30;;;6.70;;
3427;SDS011;1727;42.624;23.406;2022-08-19T14:55:25;8.83;;;7.93;;
3427;SDS011;1727;42.624;23.406;2022-08-19T14:57:52;10.77;;;7.03;;
3427;SDS011;1727;42.624;23.406;2022-08-19T15:00:19;11.97;;;7.50;;
3427;SDS011;1727;42.624;23.406;2022-08-19T15:02:46;7.90;;;7.10;;
3427;SDS011;1727;42.624;23.406;2022-08-19T15:05:12;11.57;;;7.00;;
3427;SDS011;1727;42.624;23.406;2022-08-19T15:07:40;8.60;;;6.63;;
3427;SDS011;1727;42.624;23.406;2022-08-19T15:10:09;7.10;;;6.40;;
3427;SDS011;1727;42.624;23.406;2022-08-19T15:12:37;7.97;;;7.07;;
3427;SDS011;1727;42.624;23.406;2022-08-19T15:15:06;9.30;;;5.90;;
3427;SDS011;1727;42.624;23.406;2022-08-19T15:17:34;7.47;;;6.60;;
3427;SDS011;1727;42.624;23.406;2022-08-19T15:20:02;8.17;;;7.37;;
3427;SDS011;1727;42.624;23.406;2022-08-19T15:22:30;8.67;;;7.73;;
3427;SDS011;1727;42.624;23.406;2022-08-19T15:24:56;7.67;;;6.93;;
3427;SDS011;1727;42.624;23.406;2022-08-19T15:27:25;7.27;;;6.53;;
3427;SDS011;1727;42.624;23.406;2022-08-19T15:29:52;10.03;;;7.30;;
3427;SDS011;1727;42.624;23.406;2022-08-19T15:32:19;15.17;;;8.20;;
3427;SDS011;1727;42.624;23.406;2022-08-19T15:34:46;7.60;;;6.90;;
3427;SDS011;1727;42.624;23.406;2022-08-19T15:37:14;7.27;;;6.57;;
3427;SDS011;1727;42.624;23.406;2022-08-19T15:39:41;16.30;;;7.17;;
3427;SDS011;1727;42.624;23.406;2022-08-19T15:42:16;7.73;;;6.97;;
3427;SDS011;1727;42.624;23.406;2022-08-19T15:44:45;8.00;;;6.90;;
3427;SDS011;1727;42.624;23.406;2022-08-19T15:47:12;6.90;;;6.40;;
3427;SDS011;1727;42.624;23.406;2022-08-19T15:49:44;9.97;;;7.30;;
3427;SDS011;1727;42.624;23.406;2022-08-19T15:52:11;7.37;;;6.70;;
3427;SDS011;1727;42.624;23.406;2022-08-19T15:54:37;6.80;;;6.27;;
3427;SDS011;1727;42.624;23.406;2022-08-19T15:57:05;7.67;;;6.97;;
3427;SDS011;1727;42.624;23.406;2022-08-19T15:59:50;8.20;;;6.93;;
3427;SDS011;1727;42.624;23.406;2022-08-19T16:02:34;8.13;;;6.27;;
3427;SDS011;1727;42.624;23.406;2022-08-19T16:05:20;7.30;;;6.60;;
3427;SDS011;1727;42.624;23.406;2022-08-19T16:08:07;9.53;;;6.90;;
3427;SDS011;1727;42.624;23.406;2022-08-19T16:10:34;7.20;;;6.50;;
3427;SDS011;1727;42.624;23.406;2022-08-19T16:13:01;7.00;;;5.57;;
3427;SDS011;1727;42.624;23.406;2022-08-19T16:15:31;8.00;;;6.50;;
3427;SDS011;1727;42.624;23.406;2022-08-19T16:17:58;9.10;;;6.23;;
3427;SDS011;1727;42.624;23.406;2022-08-19T16:20:28;8.17;;;6.97;;
3427;SDS011;1727;42.624;23.406;2022-08-19T16:22:55;7.37;;;6.77;;
3427;SDS011;1727;42.624;23.406;2022-08-19T16:25:35;6.60;;;6.00;;
3427;SDS011;1727;42.624;23.406;2022-08-19T16:28:03;6.93;;;6.03;;
3427;SDS011;1727;42.624;23.406;2022-08-19T16:30:31;12.10;;;7.50;;
3427;SDS011;1727;42.624;23.406;2022-08-19T16:32:58;8.70;;;7.20;;
3427;SDS011;1727;42.624;23.406;2022-08-19T16:35:26;8.17;;;6.10;;
3427;SDS011;1727;42.624;23.406;2022-08-19T16:37:53;9.80;;;7.03;;
3427;SDS011;1727;42.624;23.406;2022-08-19T16:40:21;8.30;;;5.90;;
3427;SDS011;1727;42.624;23.406;2022-08-19T16:42:49;6.53;;;5.90;;
3427;SDS011;1727;42.624;23.406;2022-08-19T16:45:17;10.10;;;6.57;;
3427;SDS011;1727;42.624;23.406;2022-08-19T16:47:47;6.70;;;6.10;;
3427;SDS011;1727;42.624;23.406;2022-08-19T16:50:14;7.53;;;6.73;;
3427;SDS011;1727;42.624;23.406;2022-08-19T16:52:42;9.40;;;6.40;;
3427;SDS011;1727;42.624;23.406;2022-08-19T16:55:10;10.57;;;7.33;;
3427;SDS011;1727;42.624;23.406;2022-08-19T16:57:37;8.10;;;6.37;;
3427;SDS011;1727;42.624;23.406;2022-08-19T17:00:05;12.40;;;7.57;;
3427;SDS011;1727;42.624;23.406;2022-08-19T17:02:35;7.13;;;6.53;;
3427;SDS011;1727;42.624;23.406;2022-08-19T17:05:05;10.10;;;7.20;;
3427;SDS011;1727;42.624;23.406;2022-08-19T17:07:34;7.80;;;7.03;;
3427;SDS011;1727;42.624;23.406;2022-08-19T17:10:01;9.00;;;7.50;;
3427;SDS011;1727;42.624;23.406;2022-08-19T17:12:29;10.10;;;6.10;;
3427;SDS011;1727;42.624;23.406;2022-08-19T17:14:56;9.90;;;7.90;;
3427;SDS011;1727;42.624;23.406;2022-08-19T17:17:23;9.67;;;7.90;;
3427;SDS011;1727;42.624;23.406;2022-08-19T17:19:50;15.10;;;9.37;;
3427;SDS011;1727;42.624;23.406;2022-08-19T17:22:19;11.00;;;8.33;;
3427;SDS011;1727;42.624;23.406;2022-08-19T17:24:45;8.50;;;7.70;;
3427;SDS011;1727;42.624;23.406;2022-08-19T17:27:12;10.20;;;8.20;;
3427;SDS011;1727;42.624;23.406;2022-08-19T17:29:39;9.93;;;7.80;;
3427;SDS011;1727;42.624;23.406;2022-08-19T17:32:06;9.97;;;8.37;;
3427;SDS011;1727;42.624;23.406;2022-08-19T17:34:34;10.37;;;7.43;;
3427;SDS011;1727;42.624;23.406;2022-08-19T17:37:01;11.73;;;8.90;;
3427;SDS011;1727;42.624;23.406;2022-08-19T17:39:50;14.33;;;9.50;;
3427;SDS011;1727;42.624;23.406;2022-08-19T17:42:17;10.50;;;8.27;;
3427;SDS011;1727;42.624;23.406;2022-08-19T17:44:44;15.10;;;8.67;;
3427;SDS011;1727;42.624;23.406;2022-08-19T17:47:11;11.53;;;8.67;;
3427;SDS011;1727;42.624;23.406;2022-08-19T17:49:38;15.80;;;8.03;;
3427;SDS011;1727;42.624;23.406;2022-08-19T17:52:05;16.70;;;8.53;;
3427;SDS011;1727;42.624;23.406;2022-08-19T17:54:31;9.23;;;8.23;;
3427;SDS011;1727;42.624;23.406;2022-08-19T17:57:00;10.33;;;9.33;;
3427;SDS011;1727;42.624;23.406;2022-08-19T17:59:26;9.60;;;8.40;;
3427;SDS011;1727;42.624;23.406;2022-08-19T18:01:53;9.67;;;8.13;;
3427;SDS011;1727;42.624;23.406;2022-08-19T18:04:21;9.90;;;9.00;;
3427;SDS011;1727;42.624;23.406;2022-08-19T18:06:49;9.63;;;8.77;;
3427;SDS011;1727;42.624;23.406;2022-08-19T18:09:19;16.17;;;8.00;;
3427;SDS011;1727;42.624;23.406;2022-08-19T18:11:45;14.70;;;7.73;;
3427;SDS011;1727;42.624;23.406;2022-08-19T18:14:14;9.00;;;8.20;;
3427;SDS011;1727;42.624;23.406;2022-08-19T18:16:40;10.30;;;8.30;;
3427;SDS011;1727;42.624;23.406;2022-08-19T18:19:10;8.10;;;7.40;;
3427;SDS011;1727;42.624;23.406;2022-08-19T18:21:37;8.97;;;8.10;;
3427;SDS011;1727;42.624;23.406;2022-08-19T18:24:04;8.07;;;7.30;;
3427;SDS011;1727;42.624;23.406;2022-08-19T18:26:32;12.10;;;8.57;;
3427;SDS011;1727;42.624;23.406;2022-08-19T18:28:59;8.47;;;7.50;;
3427;SDS011;1727;42.624;23.406;2022-08-19T18:31:27;15.43;;;8.63;;
3427;SDS011;1727;42.624;23.406;2022-08-19T18:33:54;9.23;;;8.23;;
3427;SDS011;1727;42.624;23.406;2022-08-19T18:36:21;8.10;;;7.40;;
3427;SDS011;1727;42.624;23.406;2022-08-19T18:38:48;8.40;;;7.70;;
3427;SDS011;1727;42.624;23.406;2022-08-19T18:41:37;10.00;;;9.00;;
3427;SDS011;1727;42.624;23.406;2022-08-19T18:44:21;10.20;;;8.60;;
3427;SDS011;1727;42.624;23.406;2022-08-19T18:54:09;10.90;;;8.30;;
3427;SDS011;1727;42.624;23.406;2022-08-19T18:56:36;9.23;;;8.23;;
3427;SDS011;1727;42.624;23.406;2022-08-19T18:59:08;9.03;;;8.30;;
3427;SDS011;1727;42.624;23.406;2022-08-19T19:01:39;8.93;;;8.10;;
3427;SDS011;1727;42.624;23.406;2022-08-19T19:04:11;21.03;;;8.70;;
3427;SDS011;1727;42.624;23.406;2022-08-19T19:06:39;9.40;;;8.50;;
3427;SDS011;1727;42.624;23.406;2022-08-19T19:09:07;8.50;;;7.50;;
3427;SDS011;1727;42.624;23.406;2022-08-19T19:11:39;7.90;;;7.20;;
3427;SDS011;1727;42.624;23.406;2022-08-19T19:20:51;10.63;;;7.40;;
3427;SDS011;1727;42.624;23.406;2022-08-19T19:23:18;11.43;;;7.57;;
3427;SDS011;1727;42.624;23.406;2022-08-19T19:25:46;11.03;;;8.50;;
3427;SDS011;1727;42.624;23.406;2022-08-19T19:28:14;10.60;;;8.80;;
3427;SDS011;1727;42.624;23.406;2022-08-19T19:30:41;9.93;;;7.67;;
3427;SDS011;1727;42.624;23.406;2022-08-19T19:33:07;9.43;;;8.47;;
3427;SDS011;1727;42.624;23.406;2022-08-19T19:35:34;12.77;;;9.73;;
3427;SDS011;1727;42.624;23.406;2022-08-19T19:38:01;8.87;;;8.07;;
3427;SDS011;1727;42.624;23.406;2022-08-19T19:40:28;8.43;;;7.63;;
3427;SDS011;1727;42.624;23.406;2022-08-19T19:42:57;14.30;;;7.43;;
3427;SDS011;1727;42.624;23.406;2022-08-19T19:45:24;8.60;;;7.80;;
3427;SDS011;1727;42.624;23.406;2022-08-19T19:47:52;9.40;;;8.40;;
3427;SDS011;1727;42.624;23.406;2022-08-19T19:50:19;8.00;;;7.20;;
3427;SDS011;1727;42.624;23.406;2022-08-19T19:52:46;9.20;;;8.40;;
3427;SDS011;1727;42.624;23.406;2022-08-19T19:55:13;8.20;;;7.57;;
3427;SDS011;1727;42.624;23.406;2022-08-19T19:57:43;11.13;;;8.63;;
3427;SDS011;1727;42.624;23.406;2022-08-19T20:00:13;8.73;;;8.03;;
3427;SDS011;1727;42.624;23.406;2022-08-19T20:02:42;8.53;;;7.83;;
3427;SDS011;1727;42.624;23.406;2022-08-19T20:05:09;10.30;;;8.60;;
3427;SDS011;1727;42.624;23.406;2022-08-19T20:07:36;9.13;;;7.43;;
3427;SDS011;1727;42.624;23.406;2022-08-19T20:10:20;10.53;;;8.10;;
3427;SDS011;1727;42.624;23.406;2022-08-19T20:12:47;9.33;;;8.43;;
3427;SDS011;1727;42.624;23.406;2022-08-19T20:15:17;8.30;;;7.53;;
3427;SDS011;1727;42.624;23.406;2022-08-19T20:17:45;8.40;;;7.60;;
3427;SDS011;1727;42.624;23.406;2022-08-19T20:20:17;9.10;;;8.23;;
3427;SDS011;1727;42.624;23.406;2022-08-19T20:22:44;12.80;;;7.63;;
3427;SDS011;1727;42.624;23.406;2022-08-19T20:25:12;11.80;;;7.63;;
3427;SDS011;1727;42.624;23.406;2022-08-19T20:27:40;9.03;;;7.70;;
3427;SDS011;1727;42.624;23.406;2022-08-19T20:30:09;9.10;;;8.20;;
3427;SDS011;1727;42.624;23.406;2022-08-19T20:32:39;11.00;;;7.93;;
3427;SDS011;1727;42.624;23.406;2022-08-19T20:35:08;10.13;;;8.70;;
3427;SDS011;1727;42.624;23.406;2022-08-19T20:37:35;8.80;;;7.63;;
3427;SDS011;1727;42.624;23.406;2022-08-19T20:40:03;8.33;;;7.53;;
3427;SDS011;1727;42.624;23.406;2022-08-19T20:42:33;8.60;;;7.70;;
3427;SDS011;1727;42.624;23.406;2022-08-19T20:45:01;11.13;;;8.07;;
3427;SDS011;1727;42.624;23.406;2022-08-19T20:47:32;8.17;;;7.47;;
3427;SDS011;1727;42.624;23.406;2022-08-19T20:50:02;7.70;;;7.00;;
3427;SDS011;1727;42.624;23.406;2022-08-19T20:52:29;8.80;;;7.90;;
3427;SDS011;1727;42.624;23.406;2022-08-19T20:54:57;9.53;;;8.57;;
3427;SDS011;1727;42.624;23.406;2022-08-19T20:57:23;9.93;;;9.03;;
3427;SDS011;1727;42.624;23.406;2022-08-19T20:59:50;10.70;;;8.90;;
3427;SDS011;1727;42.624;23.406;2022-08-19T21:02:17;9.93;;;8.67;;
3427;SDS011;1727;42.624;23.406;2022-08-19T21:04:45;10.30;;;9.30;;
3427;SDS011;1727;42.624;23.406;2022-08-19T21:07:13;9.30;;;8.43;;
3427;SDS011;1727;42.624;23.406;2022-08-19T21:09:40;13.63;;;8.40;;
3427;SDS011;1727;42.624;23.406;2022-08-19T21:12:12;10.30;;;8.60;;
3427;SDS011;1727;42.624;23.406;2022-08-19T21:14:40;12.30;;;8.60;;
3427;SDS011;1727;42.624;23.406;2022-08-19T21:17:08;11.33;;;8.30;;
3427;SDS011;1727;42.624;23.406;2022-08-19T21:19:35;8.70;;;7.80;;
3427;SDS011;1727;42.624;23.406;2022-08-19T21:22:02;8.53;;;7.70;;
3427;SDS011;1727;42.624;23.406;2022-08-19T21:24:31;9.20;;;8.30;;
3427;SDS011;1727;42.624;23.406;2022-08-19T21:26:58;8.03;;;7.23;;
3427;SDS011;1727;42.624;23.406;2022-08-19T21:29:25;9.57;;;8.77;;
3427;SDS011;1727;42.624;23.406;2022-08-19T21:31:52;13.73;;;8.17;;
3427;SDS011;1727;42.624;23.406;2022-08-19T21:34:18;10.73;;;8.77;;
3427;SDS011;1727;42.624;23.406;2022-08-19T21:36:45;9.27;;;8.20;;
3427;SDS011;1727;42.624;23.406;2022-08-19T21:39:12;8.17;;;7.50;;
3427;SDS011;1727;42.624;23.406;2022-08-19T21:41:40;9.40;;;8.50;;
3427;SDS011;1727;42.624;23.406;2022-08-19T21:44:07;9.10;;;8.30;;
3427;SDS011;1727;42.624;23.406;2022-08-19T21:46:34;11.00;;;7.77;;
3427;SDS011;1727;42.624;23.406;2022-08-19T21:49:01;10.70;;;7.80;;
3427;SDS011;1727;42.624;23.406;2022-08-19T21:51:29;9.83;;;8.93;;
3427;SDS011;1727;42.624;23.406;2022-08-19T21:53:56;8.13;;;7.43;;
3427;SDS011;1727;42.624;23.406;2022-08-19T21:56:22;8.23;;;7.53;;
3427;SDS011;1727;42.624;23.406;2022-08-19T21:58:51;9.80;;;8.80;;
3427;SDS011;1727;42.624;23.406;2022-08-19T22:01:19;9.53;;;8.00;;
3427;SDS011;1727;42.624;23.406;2022-08-19T22:03:46;9.10;;;8.17;;
3427;SDS011;1727;42.624;23.406;2022-08-19T22:06:13;9.03;;;7.47;;
3427;SDS011;1727;42.624;23.406;2022-08-19T22:08:40;8.23;;;7.53;;
3427;SDS011;1727;42.624;23.406;2022-08-19T22:11:08;10.93;;;7.77;;
3427;SDS011;1727;42.624;23.406;2022-08-19T22:13:36;8.90;;;8.00;;
3427;SDS011;1727;42.624;23.406;2022-08-19T22:16:05;9.00;;;8.30;;
3427;SDS011;1727;42.624;23.406;2022-08-19T22:18:32;8.77;;;7.87;;
3427;SDS011;1727;42.624;23.406;2022-08-19T22:21:00;8.67;;;7.83;;
3427;SDS011;1727;42.624;23.406;2022-08-19T22:23:28;10.10;;;7.93;;
3427;SDS011;1727;42.624;23.406;2022-08-19T22:25:55;9.30;;;8.40;;
3427;SDS011;1727;42.624;23.406;2022-08-19T22:28:22;10.70;;;7.70;;
3427;SDS011;1727;42.624;23.406;2022-08-19T22:30:48;8.40;;;7.50;;
3427;SDS011;1727;42.624;23.406;2022-08-19T22:33:17;9.10;;;8.27;;
3427;SDS011;1727;42.624;23.406;2022-08-19T22:35:47;8.33;;;7.63;;
3427;SDS011;1727;42.624;23.406;2022-08-19T22:38:16;9.10;;;8.40;;
3427;SDS011;1727;42.624;23.406;2022-08-19T22:40:44;9.30;;;7.53;;
3427;SDS011;1727;42.624;23.406;2022-08-19T22:43:14;9.53;;;7.93;;
3427;SDS011;1727;42.624;23.406;2022-08-19T22:45:42;8.83;;;8.03;;
3427;SDS011;1727;42.624;23.406;2022-08-19T22:48:11;9.80;;;8.90;;
3427;SDS011;1727;42.624;23.406;2022-08-19T22:50:42;10.33;;;8.10;;
3427;SDS011;1727;42.624;23.406;2022-08-19T22:53:32;11.40;;;9.10;;
3427;SDS011;1727;42.624;23.406;2022-08-19T22:55:58;8.60;;;7.87;;
3427;SDS011;1727;42.624;23.406;2022-08-19T22:58:25;8.53;;;7.80;;
3427;SDS011;1727;42.624;23.406;2022-08-19T23:00:53;8.40;;;7.00;;
3427;SDS011;1727;42.624;23.406;2022-08-19T23:03:20;8.37;;;7.53;;
3427;SDS011;1727;42.624;23.406;2022-08-19T23:05:49;9.80;;;6.90;;
3427;SDS011;1727;42.624;23.406;2022-08-19T23:08:16;9.67;;;8.70;;
3427;SDS011;1727;42.624;23.406;2022-08-19T23:10:43;10.77;;;7.50;;
3427;SDS011;1727;42.624;23.406;2022-08-19T23:13:11;8.93;;;7.73;;
3427;SDS011;1727;42.624;23.406;2022-08-19T23:15:41;8.80;;;8.00;;
3427;SDS011;1727;42.624;23.406;2022-08-19T23:18:10;8.33;;;7.63;;
3427;SDS011;1727;42.624;23.406;2022-08-19T23:20:37;8.93;;;8.03;;
3427;SDS011;1727;42.624;23.406;2022-08-19T23:23:09;9.43;;;8.60;;
3427;SDS011;1727;42.624;23.406;2022-08-19T23:25:37;8.63;;;7.83;;
3427;SDS011;1727;42.624;23.406;2022-08-19T23:28:08;9.10;;;7.93;;
3427;SDS011;1727;42.624;23.406;2022-08-19T23:30:52;9.73;;;8.73;;
3427;SDS011;1727;42.624;23.406;2022-08-19T23:33:21;10.17;;;9.17;;
3427;SDS011;1727;42.624;23.406;2022-08-19T23:35:49;8.43;;;7.60;;
3427;SDS011;1727;42.624;23.406;2022-08-19T23:38:19;10.00;;;8.40;;
3427;SDS011;1727;42.624;23.406;2022-08-19T23:40:47;10.13;;;8.60;;
3427;SDS011;1727;42.624;23.406;2022-08-19T23:43:15;11.00;;;7.43;;
3427;SDS011;1727;42.624;23.406;2022-08-19T23:45:42;8.60;;;7.70;;
3427;SDS011;1727;42.624;23.406;2022-08-19T23:48:09;9.17;;;8.27;;
3427;SDS011;1727;42.624;23.406;2022-08-19T23:50:36;10.37;;;8.87;;
3427;SDS011;1727;42.624;23.406;2022-08-19T23:53:06;10.40;;;8.90;;
3427;SDS011;1727;42.624;23.406;2022-08-19T23:55:36;10.40;;;7.50;;
3427;SDS011;1727;42.624;23.406;2022-08-19T23:58:06;10.83;;;9.47;;
